createdAt,value
2022-11-03T00:02:24.686Z,5.43
2022-11-03T00:04:54.705Z,5.25
2022-11-03T00:07:24.195Z,5.05
2022-11-03T00:09:53.989Z,4.78
2022-11-03T00:12:23.512Z,4.67
2022-11-03T00:14:53.711Z,4.46
2022-11-03T00:17:23.337Z,4.29
2022-11-03T00:19:53.129Z,4.34
2022-11-03T00:22:22.623Z,4.28
2022-11-03T00:24:52.520Z,4.16
2022-11-03T00:27:22.084Z,4.16
2022-11-03T00:29:51.869Z,4.10
2022-11-03T00:32:21.391Z,4.02
2022-11-03T00:34:51.251Z,3.99
2022-11-03T00:37:20.754Z,3.91
2022-11-03T00:39:50.549Z,3.87
2022-11-03T00:42:20.038Z,3.83
2022-11-03T00:44:49.828Z,3.70
2022-11-03T00:47:23.206Z,3.70
2022-11-03T00:49:50.788Z,3.83
2022-11-03T00:52:20.431Z,3.64
2022-11-03T00:54:54.323Z,3.60
2022-11-03T00:57:21.559Z,3.54
2022-11-03T00:59:51.423Z,3.45
2022-11-03T01:02:21.028Z,3.37
2022-11-03T01:05:08.599Z,3.48
2022-11-03T01:07:38.687Z,3.33
2022-11-03T01:10:09.633Z,3.24
2022-11-03T01:12:39.407Z,3.19
2022-11-03T01:15:09.484Z,3.16
2022-11-03T01:17:40.895Z,3.12
2022-11-03T01:20:09.862Z,3.06
2022-11-03T01:22:39.643Z,2.98
2022-11-03T01:25:09.572Z,2.96
2022-11-03T01:27:39.383Z,2.94
2022-11-03T01:30:09.372Z,2.92
2022-11-03T01:32:39.153Z,2.91
2022-11-03T01:35:09.360Z,2.88
2022-11-03T01:37:39.140Z,2.82
2022-11-03T01:40:09.790Z,2.79
2022-11-03T01:42:39.571Z,2.74
2022-11-03T01:45:10.631Z,2.62
2022-11-03T01:47:42.463Z,2.62
2022-11-03T01:50:17.912Z,2.72
2022-11-03T01:52:53.491Z,2.67
2022-11-03T01:55:32.370Z,2.67
2022-11-03T01:58:05.523Z,2.64
2022-11-03T02:00:36.642Z,2.62
2022-11-03T02:03:07.829Z,2.62
2022-11-03T02:05:39.626Z,2.56
2022-11-03T02:08:23.954Z,2.51
2022-11-03T02:10:53.729Z,2.43
2022-11-03T02:13:26.594Z,2.43
2022-11-03T02:15:59.521Z,2.44
2022-11-03T02:18:35.210Z,2.39
2022-11-03T02:21:29.691Z,2.33
2022-11-03T02:24:07.966Z,2.19
2022-11-03T02:26:38.288Z,2.20
2022-11-03T02:29:07.820Z,2.15
2022-11-03T02:31:52.885Z,2.16
2022-11-03T02:34:40.631Z,2.10
2022-11-03T02:37:13.307Z,2.10
2022-11-03T02:39:48.400Z,2.03
2022-11-03T02:42:20.906Z,1.98
2022-11-03T02:44:52.148Z,1.94
2022-11-03T02:47:23.922Z,1.88
2022-11-03T02:52:43.507Z,1.85
2022-11-03T02:55:35.967Z,1.79
2022-11-03T02:58:18.663Z,1.79
2022-11-03T03:00:54.189Z,1.77
2022-11-03T03:03:29.694Z,1.71
2022-11-03T03:06:02.525Z,1.72
2022-11-03T03:08:33.944Z,1.70
2022-11-03T03:11:05.863Z,1.68
2022-11-03T03:13:35.345Z,1.62
2022-11-03T03:16:23.521Z,1.57
2022-11-03T03:19:01.973Z,1.55
2022-11-03T03:21:34.793Z,1.54
2022-11-03T03:24:07.637Z,1.53
2022-11-03T03:26:40.862Z,1.51
2022-11-03T03:29:31.717Z,1.45
2022-11-03T03:32:04.328Z,1.42
2022-11-03T03:34:36.432Z,1.40
2022-11-03T03:37:08.664Z,1.37
2022-11-03T03:39:43.964Z,1.31
2022-11-03T03:42:15.776Z,1.29
2022-11-03T03:44:47.673Z,1.28
2022-11-03T03:47:20.439Z,1.24
2022-11-03T03:49:50.582Z,1.24
2022-11-03T03:52:20.995Z,1.19
2022-11-03T03:54:50.851Z,1.18
2022-11-03T03:57:23.677Z,1.14
2022-11-03T03:59:53.747Z,1.14
2022-11-03T04:02:23.467Z,1.14
2022-11-03T04:04:53.362Z,1.11
2022-11-03T04:07:43.604Z,1.07
2022-11-03T04:10:12.675Z,1.03
2022-11-03T04:13:01.566Z,1.01
2022-11-03T04:15:50.089Z,1.02
2022-11-03T04:18:39.263Z,0.94
2022-11-03T04:21:29.743Z,0.93
2022-11-03T04:24:02.989Z,0.90
2022-11-03T04:26:33.052Z,0.87
2022-11-03T04:29:04.814Z,0.88
2022-11-03T04:31:36.778Z,0.86
2022-11-03T04:34:09.422Z,0.84
2022-11-03T04:36:39.205Z,0.64
2022-11-03T04:39:17.394Z,0.68
2022-11-03T04:41:47.743Z,0.74
2022-11-03T04:44:18.043Z,0.69
2022-11-03T04:46:47.766Z,0.69
2022-11-03T04:49:20.308Z,0.69
2022-11-03T04:51:50.773Z,0.69
2022-11-03T04:54:22.959Z,0.61
2022-11-03T04:56:52.867Z,0.66
2022-11-03T04:59:22.616Z,0.67
2022-11-03T05:01:53.086Z,0.65
2022-11-03T05:04:22.864Z,0.63
2022-11-03T05:06:54.494Z,0.66
2022-11-03T05:09:32.522Z,0.63
2022-11-03T05:12:02.905Z,0.54
2022-11-03T05:14:33.883Z,0.55
2022-11-03T05:17:05.957Z,0.48
2022-11-03T05:19:39.086Z,0.41
2022-11-03T05:22:11.895Z,0.43
2022-11-03T05:24:42.449Z,0.44
2022-11-03T05:27:17.897Z,0.43
2022-11-03T05:29:49.429Z,0.45
2022-11-03T05:32:24.891Z,0.45
2022-11-03T05:34:56.227Z,0.46
2022-11-03T05:37:36.290Z,0.50
2022-11-03T05:40:24.098Z,0.46
2022-11-03T05:42:56.950Z,0.40
2022-11-03T05:45:34.906Z,0.40
2022-11-03T05:48:13.524Z,0.39
2022-11-03T05:50:43.784Z,0.42
2022-11-03T05:53:31.461Z,0.30
2022-11-03T05:56:04.558Z,0.30
2022-11-03T05:58:40.502Z,0.29
2022-11-03T06:01:34.149Z,0.34
2022-11-03T06:04:22.347Z,0.29
2022-11-03T06:06:58.621Z,0.34
2022-11-03T06:09:28.918Z,0.42
2022-11-03T06:12:02.224Z,0.44
2022-11-03T06:14:33.193Z,0.44
2022-11-03T06:17:08.211Z,0.44
2022-11-03T06:19:50.564Z,0.51
2022-11-03T06:22:28.907Z,0.60
2022-11-03T06:25:04.713Z,0.60
2022-11-03T06:27:36.035Z,0.68
2022-11-03T06:30:29.086Z,0.79
2022-11-03T06:33:05.185Z,0.79
2022-11-03T06:35:36.596Z,0.81
2022-11-03T06:38:12.478Z,0.90
2022-11-03T06:40:42.254Z,0.90
2022-11-03T06:43:17.579Z,1.07
2022-11-03T06:45:51.037Z,1.19
2022-11-03T06:48:31.073Z,1.31
2022-11-03T06:51:02.122Z,1.49
2022-11-03T06:53:34.622Z,1.82
2022-11-03T06:56:06.257Z,1.82
2022-11-03T06:58:39.499Z,1.89
2022-11-03T07:01:14.976Z,2.15
2022-11-03T07:03:45.593Z,2.15
2022-11-03T07:06:27.376Z,2.15
2022-11-03T07:08:59.513Z,2.24
2022-11-03T07:11:34.954Z,2.31
2022-11-03T07:14:13.474Z,2.41
2022-11-03T07:16:47.110Z,2.57
2022-11-03T07:19:22.751Z,2.73
2022-11-03T07:22:00.407Z,2.89
2022-11-03T07:24:36.283Z,3.19
2022-11-03T07:27:28.144Z,3.27
2022-11-03T07:30:04.156Z,3.40
2022-11-03T07:32:35.996Z,3.58
2022-11-03T07:35:29.458Z,3.73
2022-11-03T07:38:01.674Z,3.87
2022-11-03T07:40:34.931Z,4.10
2022-11-03T07:43:16.941Z,4.24
2022-11-03T07:45:52.720Z,4.46
2022-11-03T07:48:25.623Z,4.64
2022-11-03T07:51:01.406Z,4.79
2022-11-03T07:53:40.058Z,5.04
2022-11-03T07:56:18.648Z,5.25
2022-11-03T07:58:51.280Z,5.40
2022-11-03T08:01:29.862Z,5.65
2022-11-03T08:04:04.189Z,5.98
2022-11-03T08:06:34.576Z,6.33
2022-11-03T08:09:04.386Z,6.69
2022-11-03T08:11:34.319Z,7.13
2022-11-03T08:14:04.184Z,7.54
2022-11-03T08:16:34.023Z,7.96
2022-11-03T08:19:04.063Z,8.38
2022-11-03T08:21:34.139Z,8.69
2022-11-03T08:24:04.269Z,9.18
2022-11-03T08:26:34.156Z,9.42
2022-11-03T08:29:03.996Z,9.97
2022-11-03T08:31:33.887Z,9.97
2022-11-03T08:34:03.716Z,10.25
2022-11-03T08:36:35.467Z,10.53
2022-11-03T08:39:06.183Z,10.72
2022-11-03T08:41:35.694Z,10.93
2022-11-03T08:44:06.730Z,10.92
2022-11-03T08:46:36.353Z,11.09
2022-11-03T08:49:06.569Z,11.04
2022-11-03T08:51:41.427Z,11.17
2022-11-03T08:54:07.683Z,11.45
2022-11-03T08:56:37.479Z,11.47
2022-11-03T08:59:07.027Z,11.77
2022-11-03T09:01:36.925Z,11.81
2022-11-03T09:04:06.821Z,11.77
2022-11-03T09:06:36.701Z,11.75
2022-11-03T09:11:38.226Z,11.54
2022-11-03T09:14:07.838Z,11.76
2022-11-03T09:16:37.623Z,11.85
2022-11-03T09:19:07.216Z,12.37
2022-11-03T09:21:37.000Z,12.66
2022-11-03T09:24:07.396Z,12.54
2022-11-03T09:26:38.501Z,12.32
2022-11-03T09:29:08.269Z,12.66
2022-11-03T09:31:38.050Z,12.68
2022-11-03T09:34:07.990Z,12.62
2022-11-03T09:36:37.536Z,12.40
2022-11-03T09:39:07.182Z,12.40
2022-11-03T09:41:55.864Z,12.32
2022-11-03T09:44:08.579Z,12.19
2022-11-03T09:46:38.497Z,12.14
2022-11-03T09:49:08.626Z,12.06
2022-11-03T09:51:38.212Z,11.82
2022-11-03T09:54:08.091Z,11.82
2022-11-03T09:56:38.206Z,11.84
2022-11-03T09:59:22.146Z,12.10
2022-11-03T10:01:54.526Z,12.13
2022-11-03T10:04:29.523Z,12.19
2022-11-03T10:06:59.940Z,12.62
2022-11-03T10:09:30.910Z,12.71
2022-11-03T10:12:00.693Z,12.72
2022-11-03T10:14:30.738Z,12.62
2022-11-03T10:17:01.350Z,12.50
2022-11-03T10:19:31.307Z,12.32
2022-11-03T10:22:01.103Z,12.56
2022-11-03T10:24:30.890Z,12.61
2022-11-03T10:27:00.667Z,12.51
2022-11-03T10:29:32.443Z,12.41
2022-11-03T10:32:02.337Z,12.36
2022-11-03T10:34:37.849Z,12.44
2022-11-03T10:37:20.758Z,12.77
2022-11-03T10:39:52.860Z,12.87
2022-11-03T10:42:28.126Z,13.43
2022-11-03T10:45:17.996Z,13.66
2022-11-03T10:48:02.165Z,13.45
2022-11-03T10:50:32.221Z,13.16
2022-11-03T10:53:03.145Z,13.21
2022-11-03T10:55:33.126Z,13.29
2022-11-03T10:58:03.025Z,13.20
2022-11-03T11:00:33.280Z,13.70
2022-11-03T11:03:03.261Z,13.44
2022-11-03T11:05:33.433Z,13.57
2022-11-03T11:08:03.309Z,13.57
2022-11-03T11:10:33.238Z,13.40
2022-11-03T11:13:25.647Z,13.50
2022-11-03T11:16:01.413Z,13.46
2022-11-03T11:18:34.271Z,13.50
2022-11-03T11:21:20.627Z,13.38
2022-11-03T11:23:53.048Z,13.36
2022-11-03T11:26:32.168Z,13.37
2022-11-03T11:29:15.651Z,13.68
2022-11-03T11:31:46.172Z,13.84
2022-11-03T11:34:24.315Z,13.73
2022-11-03T11:37:00.097Z,13.71
2022-11-03T11:39:33.894Z,14.10
2022-11-03T11:42:15.077Z,14.15
2022-11-03T11:44:49.611Z,14.01
2022-11-03T11:47:24.825Z,13.65
2022-11-03T11:50:10.631Z,13.85
2022-11-03T11:52:44.266Z,14.22
2022-11-03T11:55:35.038Z,14.22
2022-11-03T11:58:09.899Z,14.40
2022-11-03T12:00:41.191Z,14.45
2022-11-03T12:03:12.472Z,14.56
2022-11-03T12:05:42.474Z,14.29
2022-11-03T12:08:21.771Z,14.56
2022-11-03T12:10:59.478Z,14.22
2022-11-03T12:13:38.133Z,14.67
2022-11-03T12:16:08.251Z,14.84
2022-11-03T12:18:47.691Z,15.25
2022-11-03T12:21:17.013Z,14.59
2022-11-03T12:23:48.338Z,14.57
2022-11-03T12:26:30.153Z,14.77
2022-11-03T12:28:59.960Z,14.49
2022-11-03T12:31:32.953Z,14.64
2022-11-03T12:34:01.398Z,14.49
2022-11-03T12:36:31.175Z,14.64
2022-11-03T12:39:00.989Z,14.73
2022-11-03T12:41:30.782Z,14.36
2022-11-03T12:44:00.708Z,14.16
2022-11-03T12:46:30.561Z,14.21
2022-11-03T12:49:00.380Z,13.96
2022-11-03T12:51:30.285Z,14.34
2022-11-03T12:54:00.106Z,14.26
2022-11-03T12:56:29.918Z,14.23
2022-11-03T12:58:59.704Z,13.98
2022-11-03T13:01:29.660Z,14.06
2022-11-03T13:03:59.864Z,14.26
2022-11-03T13:06:29.621Z,14.26
2022-11-03T13:08:59.503Z,13.93
2022-11-03T13:11:47.109Z,13.98
2022-11-03T13:14:16.727Z,14.20
2022-11-03T13:16:46.500Z,14.28
2022-11-03T13:19:16.228Z,14.13
2022-11-03T13:21:46.026Z,13.88
2022-11-03T13:24:15.797Z,14.00
2022-11-03T13:26:45.895Z,14.09
2022-11-03T13:29:15.658Z,14.05
2022-11-03T13:31:45.514Z,14.01
2022-11-03T13:34:15.309Z,13.88
2022-11-03T13:36:45.100Z,13.52
2022-11-03T13:39:14.924Z,13.63
2022-11-03T13:41:44.853Z,13.63
2022-11-03T13:44:14.782Z,13.46
2022-11-03T13:46:44.638Z,13.56
2022-11-03T13:51:47.180Z,13.18
2022-11-03T13:59:27.774Z,12.85
2022-11-03T14:06:53.767Z,12.91
2022-11-03T14:09:23.849Z,12.88
2022-11-03T14:12:11.615Z,12.78
2022-11-03T14:14:41.408Z,12.86
2022-11-03T14:17:12.269Z,12.61
2022-11-03T14:19:47.307Z,12.61
2022-11-03T14:22:13.620Z,12.50
2022-11-03T14:24:43.508Z,12.61
2022-11-03T14:27:13.429Z,12.68
2022-11-03T14:29:44.069Z,12.61
2022-11-03T14:32:13.818Z,12.46
2022-11-03T14:34:43.953Z,12.65
2022-11-03T14:37:14.068Z,12.42
2022-11-03T14:39:44.163Z,12.48
2022-11-03T14:42:18.142Z,12.41
2022-11-03T14:44:48.669Z,12.20
2022-11-03T14:47:21.928Z,12.28
2022-11-03T14:49:51.896Z,12.02
2022-11-03T14:52:21.461Z,11.98
2022-11-03T14:54:52.375Z,12.14
2022-11-03T14:57:22.151Z,12.04
2022-11-03T14:59:53.763Z,12.21
2022-11-03T15:02:23.843Z,12.02
2022-11-03T15:04:53.689Z,11.88
2022-11-03T15:07:23.512Z,12.13
2022-11-03T15:09:53.328Z,12.03
2022-11-03T15:12:22.977Z,12.08
2022-11-03T15:14:52.846Z,11.89
2022-11-03T15:17:23.002Z,11.82
2022-11-03T15:19:53.201Z,11.53
2022-11-03T15:27:26.076Z,11.40
2022-11-03T15:29:55.515Z,11.43
2022-11-03T15:32:25.311Z,11.30
2022-11-03T15:34:55.384Z,11.28
2022-11-03T15:37:25.181Z,11.10
2022-11-03T15:39:59.581Z,10.93
2022-11-03T15:42:25.430Z,11.19
2022-11-03T15:44:55.234Z,10.90
2022-11-03T15:47:24.797Z,11.00
2022-11-03T15:49:54.672Z,11.00
2022-11-03T15:52:24.477Z,10.84
2022-11-03T15:54:54.543Z,10.77
2022-11-03T15:57:24.617Z,10.77
2022-11-03T15:59:57.755Z,10.66
2022-11-03T16:02:40.920Z,10.63
2022-11-03T16:04:58.273Z,10.49
2022-11-03T16:07:28.138Z,10.54
2022-11-03T16:09:57.986Z,10.27
2022-11-03T16:12:27.844Z,10.24
2022-11-03T16:14:57.632Z,10.12
2022-11-03T16:17:27.422Z,10.00
2022-11-03T16:19:57.209Z,9.96
2022-11-03T16:22:27.014Z,9.84
2022-11-03T16:24:56.943Z,9.95
2022-11-03T16:27:26.727Z,9.95
2022-11-03T16:29:56.499Z,9.79
2022-11-03T16:32:26.295Z,9.71
2022-11-03T16:34:56.121Z,9.62
2022-11-03T16:37:27.558Z,9.57
2022-11-03T16:39:57.330Z,9.59
2022-11-03T16:42:27.119Z,9.57
2022-11-03T16:44:56.899Z,9.49
2022-11-03T16:47:27.094Z,9.43
2022-11-03T16:49:56.895Z,9.38
2022-11-03T16:52:26.755Z,9.39
2022-11-03T16:54:56.531Z,9.36
2022-11-03T16:57:26.328Z,9.25
2022-11-03T16:59:56.369Z,9.11
2022-11-03T17:02:28.024Z,9.23
2022-11-03T17:04:57.984Z,9.13
2022-11-03T17:07:27.765Z,9.33
2022-11-03T17:09:57.822Z,9.45
2022-11-03T17:12:27.671Z,9.43
2022-11-03T17:14:57.463Z,9.52
2022-11-03T17:17:27.323Z,9.83
2022-11-03T17:19:57.288Z,9.96
2022-11-03T17:22:27.226Z,9.75
2022-11-03T17:24:57.076Z,10.01
2022-11-03T17:27:30.055Z,9.90
2022-11-03T17:30:02.528Z,9.90
2022-11-03T17:32:37.956Z,9.85
2022-11-03T17:35:22.339Z,9.86
2022-11-03T17:37:53.674Z,9.73
2022-11-03T17:40:25.821Z,9.69
2022-11-03T17:42:56.346Z,9.84
2022-11-03T17:45:28.860Z,9.86
2022-11-03T17:47:59.035Z,9.79
2022-11-03T17:50:28.913Z,9.67
2022-11-03T17:52:58.712Z,9.64
2022-11-03T17:55:33.889Z,9.55
2022-11-03T17:58:04.930Z,9.73
2022-11-03T18:00:36.518Z,9.99
2022-11-03T18:03:10.344Z,9.63
2022-11-03T18:05:41.132Z,9.70
2022-11-03T18:08:13.242Z,9.67
2022-11-03T18:10:46.093Z,9.66
2022-11-03T18:13:18.710Z,9.63
2022-11-03T18:15:51.880Z,9.78
2022-11-03T18:18:27.232Z,9.61
2022-11-03T18:20:57.367Z,9.62
2022-11-03T18:23:29.637Z,9.42
2022-11-03T18:26:01.806Z,9.43
2022-11-03T18:28:31.613Z,9.67
2022-11-03T18:31:01.457Z,9.65
2022-11-03T18:33:34.572Z,9.69
2022-11-03T18:36:07.185Z,9.43
2022-11-03T18:38:37.712Z,9.33
2022-11-03T18:41:11.399Z,9.46
2022-11-03T18:43:41.262Z,9.43
2022-11-03T18:46:10.792Z,9.43
2022-11-03T18:48:40.563Z,9.39
2022-11-03T18:51:10.596Z,9.56
2022-11-03T18:53:40.382Z,9.64
2022-11-03T18:56:12.604Z,9.66
2022-11-03T18:58:42.367Z,9.67
2022-11-03T19:01:21.466Z,9.62
2022-11-03T19:03:52.873Z,9.42
2022-11-03T19:06:21.807Z,9.67
2022-11-03T19:08:57.227Z,9.50
2022-11-03T19:11:27.649Z,9.42
2022-11-03T19:13:57.522Z,9.38
2022-11-03T19:16:29.732Z,9.13
2022-11-03T19:18:59.512Z,9.08
2022-11-03T19:21:29.475Z,9.11
2022-11-03T19:23:59.250Z,9.32
2022-11-03T19:26:33.555Z,9.03
2022-11-03T19:29:06.417Z,9.19
2022-11-03T19:31:42.842Z,9.01
2022-11-03T19:34:18.336Z,9.01
2022-11-03T19:36:50.152Z,8.90
2022-11-03T19:39:31.881Z,9.07
2022-11-03T19:42:21.919Z,9.37
2022-11-03T19:44:52.868Z,9.15
2022-11-03T19:47:25.024Z,8.92
2022-11-03T19:49:55.205Z,9.10
2022-11-03T19:52:27.782Z,9.10
2022-11-03T19:54:59.197Z,8.95
2022-11-03T19:57:29.064Z,8.99
2022-11-03T19:59:59.480Z,8.99
2022-11-03T20:02:29.530Z,8.83
2022-11-03T20:04:59.406Z,8.96
2022-11-03T20:07:31.856Z,8.82
2022-11-03T20:10:02.668Z,8.82
2022-11-03T20:12:32.734Z,8.96
2022-11-03T20:15:02.638Z,8.84
2022-11-03T20:17:32.770Z,9.15
2022-11-03T20:20:02.553Z,8.87
2022-11-03T20:22:32.399Z,9.06
2022-11-03T20:25:05.407Z,8.79
2022-11-03T20:27:35.642Z,9.01
2022-11-03T20:32:55.956Z,9.03
2022-11-03T20:35:28.611Z,9.03
2022-11-03T20:38:01.511Z,8.95
2022-11-03T20:40:32.537Z,8.75
2022-11-03T20:43:03.244Z,8.83
2022-11-03T20:45:33.091Z,8.79
2022-11-03T20:48:03.229Z,8.69
2022-11-03T20:50:33.392Z,8.68
2022-11-03T20:53:03.257Z,8.64
2022-11-03T20:55:33.043Z,8.95
2022-11-03T20:58:03.472Z,8.81
2022-11-03T21:00:33.302Z,8.79
2022-11-03T21:03:03.793Z,8.74
2022-11-03T21:05:33.473Z,8.72
2022-11-03T21:08:03.245Z,8.97
2022-11-03T21:10:33.037Z,9.00
2022-11-03T21:13:03.022Z,8.83
2022-11-03T21:16:10.872Z,8.70
2022-11-03T21:18:39.842Z,8.68
2022-11-03T21:21:11.329Z,8.77
2022-11-03T21:23:41.496Z,9.00
2022-11-03T21:26:13.264Z,8.72
2022-11-03T21:28:43.039Z,9.03
2022-11-03T21:31:14.511Z,8.85
2022-11-03T21:33:43.999Z,8.69
2022-11-03T21:36:13.564Z,8.72
2022-11-03T21:38:43.434Z,8.79
2022-11-03T21:41:30.814Z,8.85
2022-11-03T21:44:15.512Z,8.85
2022-11-03T21:46:46.722Z,8.74
2022-11-03T21:49:20.846Z,8.75
2022-11-03T21:51:50.625Z,8.97
2022-11-03T21:54:20.293Z,8.94
2022-11-03T21:56:50.165Z,9.30
2022-11-03T21:59:19.760Z,9.30
2022-11-03T22:01:50.922Z,8.97
2022-11-03T22:04:20.526Z,9.13
2022-11-03T22:06:53.327Z,8.93
2022-11-03T22:09:24.134Z,9.31
2022-11-03T22:11:54.746Z,9.40
2022-11-03T22:14:26.096Z,9.14
2022-11-03T22:16:56.243Z,9.01
2022-11-03T22:19:44.158Z,9.16
2022-11-03T22:22:33.431Z,9.08
2022-11-03T22:25:21.061Z,8.97
2022-11-03T22:27:50.844Z,9.20
2022-11-03T22:30:39.006Z,9.24
2022-11-03T22:33:08.827Z,9.03
2022-11-03T22:35:56.638Z,9.15
2022-11-03T22:38:28.128Z,8.96
2022-11-03T22:41:15.790Z,9.11
2022-11-03T22:44:03.365Z,9.13
2022-11-03T22:46:33.206Z,9.00
2022-11-03T22:49:02.985Z,9.09
2022-11-03T22:51:32.762Z,8.97
2022-11-03T22:54:11.923Z,9.10
2022-11-03T22:56:41.985Z,9.28
2022-11-03T22:59:12.913Z,9.28
2022-11-03T23:01:42.982Z,9.12
2022-11-03T23:04:13.060Z,9.12
2022-11-03T23:06:42.874Z,8.97
2022-11-03T23:09:12.553Z,8.89
2022-11-03T23:11:42.335Z,8.89
2022-11-03T23:14:12.674Z,8.93
2022-11-03T23:16:44.390Z,9.01
2022-11-03T23:19:33.838Z,9.05
2022-11-03T23:22:03.678Z,9.03
2022-11-03T23:24:51.359Z,8.89
2022-11-03T23:27:20.862Z,9.00
2022-11-03T23:29:50.621Z,9.03
2022-11-03T23:32:20.208Z,8.88
2022-11-03T23:34:50.152Z,8.91
2022-11-03T23:37:19.940Z,8.80
2022-11-03T23:39:49.715Z,8.91
2022-11-03T23:42:19.223Z,8.91
2022-11-03T23:45:06.653Z,8.81
2022-11-03T23:47:54.193Z,8.84
2022-11-03T23:50:23.868Z,8.76
2022-11-03T23:52:53.675Z,8.72
2022-11-03T23:55:23.201Z,8.74
2022-11-03T23:58:11.221Z,8.91
